Harpersville, Alabama
Current Conditions -  °F | °C
As of 2:35 PM on Monday 22 Dec 2014 (Local Time) from KSCD Reporting Station
Moderate Rain Moderate Rain  
Wind Chill: 51°   Ceiling: 600
Heat Index: 51°   Visibility: 5mi
Dew Point: 51°   Wind: 0mph
Humidity: 100%   Direction: NA
Pressure: 29.82"   Gusts: NA
Location:  33.34°N, 86.44°W
Report Text: KSCD 222035Z AUTO 00000KT 5SM RA BKN006 BKN019 OVC033 11/11 A2982 RMK AO2 P0003 T01060106
Loading
Personal Weather Stations






























Interactive Weather Map New forecast layout! Learn more

10-Day Weather Forecast

Advertisements
Track Severe Weather on mobile